Historyczne dane pomiarowe

Dodano dane terminowe – wersja testowa.

Dane z okresu 1951-2019

Wersja bazy: 1.34 [2019-03-16, lista zmian], aktualizacja planowana na 2019-04-15

Dane meteo z obszaru Polski uzyskane na podstawie danych udostępnionych przez Instytut Meteorologii i Gospodarki Wodnej – Państwowy Instytut Badawczy.

 

Wybierz Datę:    

       

TemperaturaWilgotnośćWiatrCiśnienieOpadyŚniegCzas trwania zjawisk
 Stacja t tx tn tng RH VA  wxwx mslp ppp RRR   cm mm wxwxwxwxwxwxwx
1983-08-14 17.1 19.2 15.4- 62.8- 3.3 2.7---- 0.0------------
1983-08-13 16.4 18.9 12.9- 71.8- 5.0 10.7---- 0.0------------
1983-08-12 18.2 21.0 16.8- 75.5- 8.0 9.0---- 5.8------------
1983-08-11 19.9 22.5 16.0- 82.3- 0.3 1.3---- 0.0------------
1983-08-10 19.3 21.6 15.1- 76.3- 1.0 4.3---- 0.0------------
1983-08-09 18.9 21.1 16.3- 86.8- 2.0 4.3---- 0.0------------
1983-08-08 18.3 20.0 17.0- 85.3- 4.3 4.3---- 0.0------------
1983-08-07 17.4 20.5 14.5- 88.8- 2.3 4.7---- 0.0------------
1983-08-06 16.0 19.6 11.5- 83.0- 4.7 4.3---- 0.0------------
1983-08-05 16.4 17.5 15.2- 91.3- 6.7 1.7---- 0.2------------
1983-08-04 14.5 15.7 13.1- 91.5- 8.0 14.3---- 11.9------------
1983-08-03 16.8 18.9 15.2- 75.8- 8.0 10.7---- 35.0------------
1983-08-02 19.4 30.2 16.9- 84.5- 7.0 2.3---- 0.0------------
1983-08-01 24.4 32.8 15.7- 45.0- 4.3 5.0---- 3.3------------
1983-07-31 18.6 21.1 14.3- 73.5- 3.0 2.0---- 0.0------------
1983-07-30 17.6 18.8 16.1- 69.3- 4.3 11.7---- 0.0------------
1983-07-29 17.7 19.4 16.3- 80.0- 6.3 7.7---- 1.0------------
1983-07-28 19.3 22.3 17.8- 82.5- 7.3 8.3---- 0.0------------
1983-07-27 22.0 29.8 16.2- 65.0- 4.3 3.7---- 0.0------------
1983-07-26 18.3 22.2 12.3- 77.3- 0.7 1.7---- 0.0------------
1983-07-25 17.5 20.6 12.2- 75.3- 0.7 4.0---- 0.0------------
1983-07-24 19.0 22.4 15.6- 78.0- 4.7 3.7---- 0.0------------
1983-07-23 19.6 22.2 17.6- 72.8- 0.7 4.0---- 0.0------------
1983-07-22 17.2 18.2 15.6- 84.5- 7.3 7.3---- 0.0------------
1983-07-21 16.0 17.4 11.2- 62.0- 5.0 9.0---- 0.4------------
1983-07-20 15.2 18.2 11.7- 65.0- 6.3 12.3---- 2.2------------
1983-07-19 19.2 25.6 17.9- 73.3- 6.0 8.7---- 1.4------------
1983-07-18 21.8 27.2 14.7- 64.8- 6.3 2.3---- 0.0------------
1983-07-17 19.3 20.8 17.2- 59.5- 3.0 2.7---- 0.0------------
1983-07-16 20.2 24.8 18.7- 75.3- 6.0 6.3---- 0.0------------
1983-07-15 20.3 25.3 15.6- 68.8- 4.7 5.0---- 0.0------------
1983-07-14 19.7 21.2 17.8- 72.5- 3.0 3.3---- 0.0------------
1983-07-13 20.2 22.4 18.9- 85.3- 7.0 8.3---- 0.0------------
1983-07-12 21.9 23.8 19.7- 83.3- 2.7 3.7---- 0.0------------
1983-07-11 21.5 24.4 18.1- 87.5- 4.7 1.0---- 0.0------------
1983-07-10 20.0 23.8 14.0- 81.3- 2.3 1.3---- 0.0------------
1983-07-09 19.0 21.7 15.7- 81.5- 2.0 2.7---- 0.0------------
1983-07-08 17.8 20.1 12.8- 79.8- 0.0 4.3---- 0.0------------
1983-07-07 19.6 24.1 16.3- 70.8- 0.3 7.0---- 0.0------------
1983-07-06 18.4 21.5 12.9- 78.0- 0.3 5.3---- 0.0------------
1983-07-05 17.6 20.4 13.2- 81.8- 1.0 2.7---- 0.0------------
1983-07-04 16.6 19.5 12.5- 79.5- 5.3 2.7---- 0.0------------
1983-07-03 16.8 19.3 14.6- 81.0- 3.7 4.0---- 0.0------------
1983-07-02 16.1 18.4 13.2- 72.0- 4.3 2.3---- 0.0------------
1983-07-01 15.7 17.9 14.7- 88.3- 8.0 2.7---- 0.1------------
1983-06-30 15.9 19.2 13.5- 91.5- 8.0 2.3---- 3.4------------
1983-06-29 14.3 18.7 10.8- 75.8- 5.0 5.0---- 5.1------------
1983-06-28 14.0 16.6 12.0- 69.8- 4.7 9.0---- 0.5------------
1983-06-27 16.0 18.9 13.8- 81.8- 6.0 3.7---- 3.0------------
1983-06-26 17.0 19.2 15.0- 69.3- 3.0 3.0---- 0.0------------
1983-06-25 18.0 21.8 16.8- 72.3- 2.7 4.3---- 0.0------------
1983-06-24 18.6 22.8 12.2- 54.5- 0.7 1.7---- 0.0------------
1983-06-23 15.3 21.9 9.4- 66.0- 0.0 4.0---- 0.0------------
1983-06-22 12.8 17.9 7.7- 74.3- 0.0 6.7---- 0.0------------
1983-06-21 16.9 22.8 6.3- 73.3- 0.7 7.3---- 0.0------------
1983-06-20 17.2 19.2 13.4- 77.0- 0.0 2.3---- 0.0------------
1983-06-19 16.3 17.8 14.2- 72.8- 1.0 4.0---- 0.0------------
1983-06-18 14.9 17.1 13.3- 77.3- 4.7 6.3---- 0.0------------
1983-06-17 13.8 16.4 11.3- 76.3- 4.7 3.7---- 0.0------------
1983-06-16 14.0 15.1 12.1- 70.0- 6.3 7.3---- 0.0------------
296.1 ms

 

Źródłem pochodzenia danych jest Instytut Meteorologii i Gospodarki Wodnej – Państwowy Instytut Badawczy. Dane Instytutu Meteorologii i Gospodarki Wodnej – Państwowego Instytutu Badawczego zostały przetworzone.

Dane źródłowe można odnaleźć na stronie https://dane.imgw.pl